Time;durP1;ratioP1;P1;durP2;ratioP2;P2;SDS_P1;SDS_P2;PMS_P1;PMS_P2;Temp;Humidity;BMP_temperature;BMP_pressure;BME280_temperature;BME280_humidity;BME280_pressure;Samples;Min_cycle;Max_cycle;Signal;HPM_P1;HPM_P2
2023/11/10 00:01:00;;;;;;;;;;;;;;;11.39;56.50;99404.88;4971113;27;99436;-70
2023/11/10 00:03:26;;;;;;;;;;;;;;;11.38;56.31;99406.00;4968101;27;98105;-70
2023/11/10 00:05:53;;;;;;;;;;;;;;;11.37;56.37;99398.22;4967716;27;100030;-68
2023/11/10 00:08:19;;;;;;;;;;;;;;;11.36;56.30;99397.41;4965766;27;98614;-68
2023/11/10 00:10:47;;;;;;;;;;;;;;;11.36;56.39;99396.59;4978832;27;98160;-67
2023/11/10 00:13:15;;;;;;;;;;;;;;;11.33;56.19;99395.31;4965144;27;98270;-70
2023/11/10 00:15:42;;;;;;;;;;;;;;;11.34;56.27;99393.41;4960198;27;98364;-70
2023/11/10 00:18:08;;;;;;;;;;;;;;;11.33;56.26;99391.81;4969236;27;98569;-70
2023/11/10 00:20:36;;;;;;;;;;;;;;;11.31;56.27;99400.97;4966659;27;98101;-68
2023/11/10 00:23:03;;;;;;;;;;;;;;;11.31;56.20;99403.69;4977392;27;98939;-70
2023/11/10 00:25:29;;;;;;;;;;;;;;;11.30;56.36;99398.59;4968694;27;98103;-70
2023/11/10 00:27:56;;;;;;;;;;;;;;;11.29;56.29;99391.59;4969595;27;99228;-70
2023/11/10 00:30:22;;;;;;;;;;;;;;;11.27;56.30;99386.50;4967850;27;98330;-67
2023/11/10 00:32:48;;;;;;;;;;;;;;;11.28;56.34;99392.72;4983807;27;98443;-70
2023/11/10 00:35:15;;;;;;;;;;;;;;;11.27;56.48;99399.97;4962125;27;99476;-70
2023/11/10 00:37:41;;;;;;;;;;;;;;;11.26;56.28;99395.69;4966106;27;98026;-67
2023/11/10 00:40:08;;;;;;;;;;;;;;;11.25;56.17;99393.28;4966168;27;98825;-70
2023/11/10 00:42:35;;;;;;;;;;;;;;;11.24;56.42;99389.81;4967222;27;100008;-70
2023/11/10 00:45:01;;;;;;;;;;;;;;;11.25;56.29;99377.09;4965308;27;98342;-70
2023/11/10 00:47:27;;;;;;;;;;;;;;;11.23;56.20;99382.78;4965724;27;98123;-70
2023/11/10 00:49:53;;;;;;;;;;;;;;;11.23;56.37;99379.28;4968219;27;98799;-70
2023/11/10 00:52:21;;;;;;;;;;;;;;;11.20;56.13;99369.91;4968605;27;98320;-70
2023/11/10 00:54:50;;;;;;;;;;;;;;;11.21;56.20;99370.72;4967532;27;98281;-67
2023/11/10 00:57:17;;;;;;;;;;;;;;;11.20;56.45;99371.78;4968276;27;98240;-68
2023/11/10 00:59:44;;;;;;;;;;;;;;;11.18;56.27;99366.69;4982773;27;99024;-67
2023/11/10 01:02:12;;;;;;;;;;;;;;;11.17;56.29;99362.41;4963115;27;98194;-67
2023/11/10 01:04:39;;;;;;;;;;;;;;;11.17;56.20;99361.63;4967641;27;98216;-67
2023/11/10 01:07:06;;;;;;;;;;;;;;;11.15;56.45;99359.19;4963935;27;98203;-67
2023/11/10 01:09:32;;;;;;;;;;;;;;;11.14;56.26;99352.22;4970984;27;98447;-68
2023/11/10 01:11:59;;;;;;;;;;;;;;;11.13;56.35;99357.91;4979941;27;98473;-70
2023/11/10 01:14:25;;;;;;;;;;;;;;;11.12;56.41;99356.28;4972777;27;98463;-70
2023/11/10 01:16:52;;;;;;;;;;;;;;;11.11;56.22;99349.31;4972565;27;98758;-68
2023/11/10 01:19:18;;;;;;;;;;;;;;;11.10;56.27;99351.22;4965521;27;98847;-70
2023/11/10 01:21:46;;;;;;;;;;;;;;;11.09;56.20;99352.31;4968639;27;99767;-67
2023/11/10 01:24:16;;;;;;;;;;;;;;;11.09;56.41;99354.22;4985753;27;99402;-67
2023/11/10 01:26:42;;;;;;;;;;;;;;;11.07;56.30;99351.78;4985136;27;98068;-70
2023/11/10 01:29:08;;;;;;;;;;;;;;;11.05;56.33;99346.72;4972541;27;98074;-69
2023/11/10 01:31:35;;;;;;;;;;;;;;;11.05;56.34;99345.91;4990035;27;98445;-68
2023/11/10 01:34:02;;;;;;;;;;;;;;;11.02;56.37;99336.50;4967471;27;98501;-67
2023/11/10 01:36:30;;;;;;;;;;;;;;;11.00;56.50;99335.19;4986065;27;97971;-67
2023/11/10 01:38:57;;;;;;;;;;;;;;;10.97;56.47;99327.72;4969090;27;98345;-67
2023/11/10 01:41:24;;;;;;;;;;;;;;;10.92;56.47;99317.81;4967279;27;97872;-66
2023/11/10 01:43:50;;;;;;;;;;;;;;;10.91;56.28;99334.28;4969172;27;98108;-66
2023/11/10 01:46:39;;;;;;;;;;;;;;;10.87;56.36;99325.19;4970724;27;98339;-67
2023/11/10 01:49:05;;;;;;;;;;;;;;;10.84;56.45;99323.09;4985464;27;98521;-69
2023/11/10 01:51:31;;;;;;;;;;;;;;;10.82;56.33;99326.09;4970688;27;98626;-69
2023/11/10 01:53:59;;;;;;;;;;;;;;;10.79;56.41;99322.06;4960240;27;99287;-66
2023/11/10 01:56:26;;;;;;;;;;;;;;;10.77;56.38;99318.09;4963900;27;99589;-69
2023/11/10 01:58:52;;;;;;;;;;;;;;;10.75;56.50;99317.59;4973124;27;99272;-66
2023/11/10 02:01:18;;;;;;;;;;;;;;;10.74;56.07;99316.00;4980841;27;98136;-69
2023/11/10 02:03:46;;;;;;;;;;;;;;;10.72;56.49;99310.09;4970923;27;97965;-69
2023/11/10 02:06:13;;;;;;;;;;;;;;;10.71;56.57;99306.59;4965334;27;98432;-67
2023/11/10 02:08:39;;;;;;;;;;;;;;;10.68;56.52;99309.88;4964957;27;98570;-67
2023/11/10 02:11:06;;;;;;;;;;;;;;;10.68;56.42;99319.84;4972106;27;97858;-69
2023/11/10 02:13:32;;;;;;;;;;;;;;;10.67;56.20;99313.66;4973781;27;98461;-66
2023/11/10 02:16:00;;;;;;;;;;;;;;;10.66;56.27;99305.88;4983024;27;98045;-66
2023/11/10 02:18:27;;;;;;;;;;;;;;;10.65;56.49;99309.66;4971210;27;98422;-69
2023/11/10 02:20:55;;;;;;;;;;;;;;;10.64;56.18;99308.84;4970120;27;98113;-67
2023/11/10 02:23:21;;;;;;;;;;;;;;;10.63;56.27;99301.88;4969378;27;98971;-69
2023/11/10 02:25:52;;;;;;;;;;;;;;;10.61;56.18;99301.38;4970425;27;98425;-66
2023/11/10 02:28:19;;;;;;;;;;;;;;;10.61;56.18;99301.38;4970073;27;98071;-66
2023/11/10 02:30:46;;;;;;;;;;;;;;;10.60;56.19;99297.06;4972680;27;99286;-69
2023/11/10 02:33:12;;;;;;;;;;;;;;;10.59;56.35;99295.47;4969899;27;98612;-69
2023/11/10 02:35:39;;;;;;;;;;;;;;;10.59;56.31;99289.28;4986212;27;99489;-66
2023/11/10 02:38:08;;;;;;;;;;;;;;;10.57;56.14;99285.00;4972317;27;98064;-69
2023/11/10 02:40:35;;;;;;;;;;;;;;;10.57;56.44;99278.78;4987716;27;99246;-66
2023/11/10 02:43:02;;;;;;;;;;;;;;;10.55;56.67;99270.22;4970604;27;98304;-66
2023/11/10 02:45:29;;;;;;;;;;;;;;;10.54;56.18;99264.03;4972175;27;98151;-69
2023/11/10 02:47:56;;;;;;;;;;;;;;;10.55;56.61;99259.44;4969333;27;98244;-69
2023/11/10 02:50:23;;;;;;;;;;;;;;;10.54;56.19;99261.34;4970189;27;98277;-67
2023/11/10 02:52:51;;;;;;;;;;;;;;;10.54;56.06;99249.78;4968234;27;100780;-67
2023/11/10 02:55:17;;;;;;;;;;;;;;;10.53;56.44;99246.28;4979330;27;98086;-69
2023/11/10 02:57:45;;;;;;;;;;;;;;;10.53;56.25;99246.28;4965257;27;99596;-67
2023/11/10 03:00:12;;;;;;;;;;;;;;;10.53;56.30;99248.97;4968862;27;98047;-67
2023/11/10 03:02:39;;;;;;;;;;;;;;;10.52;56.42;99244.66;4963778;27;99707;-67
2023/11/10 03:05:06;;;;;;;;;;;;;;;10.52;56.36;99247.34;4980611;27;97976;-69
2023/11/10 03:07:33;;;;;;;;;;;;;;;10.52;56.20;99247.34;4976298;27;98399;-67
2023/11/10 03:10:00;;;;;;;;;;;;;;;10.51;56.45;99248.47;4968031;27;97900;-67
2023/11/10 03:12:26;;;;;;;;;;;;;;;10.52;56.29;99246.56;4974625;27;97853;-66
2023/11/10 03:14:53;;;;;;;;;;;;;;;10.52;56.23;99246.56;4970499;27;98895;-69
2023/11/10 03:17:19;;;;;;;;;;;;;;;10.51;56.43;99247.66;4970453;27;99709;-69
2023/11/10 03:19:46;;;;;;;;;;;;;;;10.51;56.12;99245.75;4970611;27;99612;-67
2023/11/10 03:22:16;;;;;;;;;;;;;;;10.50;56.41;99222.63;4954268;27;107362;-69
2023/11/10 03:24:44;;;;;;;;;;;;;;;10.50;56.61;99224.50;4964609;27;98289;-69
2023/11/10 03:27:11;;;;;;;;;;;;;;;10.51;56.15;99220.72;4962832;27;98014;-69
2023/11/10 03:29:38;;;;;;;;;;;;;;;10.50;56.27;99228.00;4982080;27;98248;-69
2023/11/10 03:32:06;;;;;;;;;;;;;;;10.49;56.00;99226.41;4973673;27;98200;-69
2023/11/10 03:34:34;;;;;;;;;;;;;;;10.50;56.24;99229.91;4968459;27;98710;-66
2023/11/10 03:37:00;;;;;;;;;;;;;;;10.49;56.18;99231.81;4966144;27;97944;-69
2023/11/10 03:39:26;;;;;;;;;;;;;;;10.50;56.48;99230.69;4970465;27;98745;-69
2023/11/10 03:41:59;;;;;;;;;;;;;;;10.50;56.21;99236.09;4970058;27;98385;-69
2023/11/10 03:44:27;;;;;;;;;;;;;;;10.50;55.99;99238.78;4984168;27;98277;-67
2023/11/10 03:46:53;;;;;;;;;;;;;;;10.51;56.02;99236.88;4966787;27;100875;-69
2023/11/10 03:49:21;;;;;;;;;;;;;;;10.50;56.21;99235.28;4966401;27;98495;-71
2023/11/10 03:51:48;;;;;;;;;;;;;;;10.50;56.05;99241.47;4984886;27;98821;-69
2023/11/10 03:54:14;;;;;;;;;;;;;;;10.50;56.25;99246.88;4965828;27;98392;-69
2023/11/10 03:56:41;;;;;;;;;;;;;;;10.50;56.13;99244.16;4967901;27;98974;-69
2023/11/10 03:59:09;;;;;;;;;;;;;;;10.51;56.43;99234.19;4998488;27;98577;-69
2023/11/10 04:01:37;;;;;;;;;;;;;;;10.50;55.95;99235.28;4953993;27;100547;-69
2023/11/10 04:04:03;;;;;;;;;;;;;;;10.50;56.04;99241.47;4959953;27;98667;-69
2023/11/10 04:06:29;;;;;;;;;;;;;;;10.50;56.09;99238.78;4978501;27;98398;-67
2023/11/10 04:08:56;;;;;;;;;;;;;;;10.51;56.40;99236.88;4963369;27;98583;-69
2023/11/10 04:11:22;;;;;;;;;;;;;;;10.52;56.56;99225.78;4960016;27;111145;-67
2023/11/10 04:13:48;;;;;;;;;;;;;;;10.55;56.58;99230.59;4961390;27;98687;-67
2023/11/10 04:16:21;;;;;;;;;;;;;;;10.59;56.47;99230.00;4973149;27;113089;-69
2023/11/10 04:18:48;;;;;;;;;;;;;;;10.61;56.26;99225.94;4991199;27;98572;-69
2023/11/10 04:21:15;;;;;;;;;;;;;;;10.65;56.16;99226.13;4957605;27;99266;-67
2023/11/10 04:23:42;;;;;;;;;;;;;;;10.72;56.26;99221.94;4974019;27;98434;-67
2023/11/10 04:26:08;;;;;;;;;;;;;;;10.81;56.45;99227.44;4963018;27;100306;-69
2023/11/10 04:28:34;;;;;;;;;;;;;;;10.91;56.48;99227.25;4975463;27;99217;-71
2023/11/10 04:31:01;;;;;;;;;;;;;;;11.00;56.28;99230.03;4972754;27;99397;-67
2023/11/10 04:33:30;;;;;;;;;;;;;;;11.06;56.41;99216.16;4973561;27;98268;-70
2023/11/10 04:35:56;;;;;;;;;;;;;;;11.14;56.34;99222.75;4976108;27;98565;-70
2023/11/10 04:38:23;;;;;;;;;;;;;;;11.20;56.14;99231.53;4973376;27;99463;-69
2023/11/10 04:40:52;;;;;;;;;;;;;;;11.26;56.42;99238.44;4962300;27;98860;-68
2023/11/10 04:43:18;;;;;;;;;;;;;;;11.29;56.29;99227.84;4965510;27;98028;-70
2023/11/10 04:45:44;;;;;;;;;;;;;;;11.33;56.30;99222.63;4965370;27;102943;-71
2023/11/10 04:48:11;;;;;;;;;;;;;;;11.37;56.26;99231.72;4968774;27;98326;-68
2023/11/10 04:50:38;;;;;;;;;;;;;;;11.39;56.21;99231.41;4967974;27;98012;-66
2023/11/10 04:53:04;;;;;;;;;;;;;;;11.41;56.25;99232.72;4978546;27;98357;-69
2023/11/10 04:55:30;;;;;;;;;;;;;;;11.44;56.19;99234.81;4970841;27;98048;-67
2023/11/10 04:57:57;;;;;;;;;;;;;;;11.46;56.46;99238.00;4969886;27;98083;-67
2023/11/10 05:00:23;;;;;;;;;;;;;;;11.49;56.16;99244.69;4968355;27;98174;-70
2023/11/10 05:02:50;;;;;;;;;;;;;;;11.50;56.28;99238.19;4982265;27;98193;-67
2023/11/10 05:05:18;;;;;;;;;;;;;;;11.52;56.26;99239.50;4977963;27;98425;-69
2023/11/10 05:07:44;;;;;;;;;;;;;;;11.54;56.24;99228.41;4967733;27;98281;-69
2023/11/10 05:10:10;;;;;;;;;;;;;;;11.57;56.28;99235.09;4968021;27;98025;-69
2023/11/10 05:12:37;;;;;;;;;;;;;;;11.57;56.31;99232.41;4986522;27;98509;-67
2023/11/10 05:15:07;;;;;;;;;;;;;;;11.59;56.24;99230.19;4969882;27;99205;-67
2023/11/10 05:17:39;;;;;;;;;;;;;;;11.59;56.46;99220.19;4984134;27;98405;-67
2023/11/10 05:20:09;;;;;;;;;;;;;;;11.61;56.35;99226.09;4970471;27;98137;-67
2023/11/10 05:22:35;;;;;;;;;;;;;;;11.62;56.17;99226.88;4972446;27;97971;-70
2023/11/10 05:25:04;;;;;;;;;;;;;;;11.63;56.24;99233.88;4965032;27;112618;-69
2023/11/10 05:27:31;;;;;;;;;;;;;;;11.63;56.16;99231.16;4986789;27;99624;-67
2023/11/10 05:29:57;;;;;;;;;;;;;;;11.63;56.18;99240.09;4968359;27;98317;-70
2023/11/10 05:32:23;;;;;;;;;;;;;;;11.64;56.34;99240.88;4979317;27;98338;-67
2023/11/10 05:34:51;;;;;;;;;;;;;;;11.64;56.32;99244.38;4967224;27;100941;-70
2023/11/10 05:37:18;;;;;;;;;;;;;;;11.65;56.41;99243.25;4992125;27;98043;-69
2023/11/10 05:39:50;;;;;;;;;;;;;;;11.66;56.32;99238.66;4961653;27;98486;-67
2023/11/10 05:42:17;;;;;;;;;;;;;;;11.65;56.14;99240.56;4986553;27;98855;-69
2023/11/10 05:44:43;;;;;;;;;;;;;;;11.67;56.46;99249.19;4968233;27;98210;-69
2023/11/10 05:47:09;;;;;;;;;;;;;;;11.69;56.32;99249.66;4966346;27;98175;-67
2023/11/10 05:49:36;;;;;;;;;;;;;;;11.69;56.41;99255.06;4977899;27;98379;-69
2023/11/10 05:52:03;;;;;;;;;;;;;;;11.71;56.23;99254.75;4978201;27;98154;-70
2023/11/10 05:54:29;;;;;;;;;;;;;;;11.71;56.54;99258.25;4973751;27;98810;-70
2023/11/10 05:56:56;;;;;;;;;;;;;;;11.73;56.38;99257.94;4974644;27;98054;-69
2023/11/10 05:59:23;;;;;;;;;;;;;;;11.74;56.23;99254.13;4979419;27;98099;-69
2023/11/10 06:01:49;;;;;;;;;;;;;;;11.73;56.37;99256.03;4983163;27;98192;-70
2023/11/10 06:04:15;;;;;;;;;;;;;;;11.75;56.29;99255.72;4998925;27;114594;-70
2023/11/10 06:06:43;;;;;;;;;;;;;;;11.76;56.34;99252.75;4988237;27;98666;-67
2023/11/10 06:09:10;;;;;;;;;;;;;;;11.76;56.19;99255.44;4969820;27;98829;-67
2023/11/10 06:11:36;;;;;;;;;;;;;;;11.78;56.22;99252.44;4968995;27;98201;-70
2023/11/10 06:14:03;;;;;;;;;;;;;;;11.77;56.19;99250.84;4968906;27;100118;-70
2023/11/10 06:16:29;;;;;;;;;;;;;;;11.78;56.25;99245.13;4978886;27;98839;-71
2023/11/10 06:18:55;;;;;;;;;;;;;;;11.79;56.27;99259.44;4966125;27;98665;-68
2023/11/10 06:21:23;;;;;;;;;;;;;;;11.79;56.32;99252.13;4968609;27;98310;-69
2023/11/10 06:23:49;;;;;;;;;;;;;;;11.80;56.29;99255.63;4961878;27;98193;-68
2023/11/10 06:26:17;;;;;;;;;;;;;;;11.82;56.21;99256.13;4967234;27;99452;-66
2023/11/10 06:28:43;;;;;;;;;;;;;;;11.83;56.26;99276.66;4966705;27;98468;-67
2023/11/10 06:31:10;;;;;;;;;;;;;;;11.85;56.24;99273.66;4998719;27;98352;-69
2023/11/10 06:33:39;;;;;;;;;;;;;;;11.86;56.19;99264.44;4963901;27;98756;-66
2023/11/10 06:36:05;;;;;;;;;;;;;;;11.87;56.37;99261.44;4982192;27;98493;-69
2023/11/10 06:38:32;;;;;;;;;;;;;;;11.88;56.11;99270.34;5015434;27;98377;-66
2023/11/10 06:40:57;;;;;;;;;;;;;;;11.89;56.34;99267.31;4976455;27;98088;-68
2023/11/10 06:43:24;;;;;;;;;;;;;;;11.92;56.15;99266.72;4968138;27;98210;-66
2023/11/10 06:45:50;;;;;;;;;;;;;;;11.94;56.10;99272.59;4973476;27;99654;-67
2023/11/10 06:48:16;;;;;;;;;;;;;;;11.97;56.02;99271.22;4968372;27;98301;-70
2023/11/10 06:50:43;;;;;;;;;;;;;;;11.99;56.09;99267.09;4965880;27;100472;-70
2023/11/10 06:53:10;;;;;;;;;;;;;;;12.02;56.20;99274.59;4984741;27;98393;-67
2023/11/10 06:55:36;;;;;;;;;;;;;;;12.06;56.32;99265.88;4988979;27;98572;-69
2023/11/10 06:58:07;;;;;;;;;;;;;;;12.08;55.93;99266.38;4971240;27;99314;-70
2023/11/10 07:00:33;;;;;;;;;;;;;;;12.13;55.94;99268.94;4972436;27;98609;-70
2023/11/10 07:03:02;;;;;;;;;;;;;;;12.13;56.17;99272.44;4970456;27;98049;-67
2023/11/10 07:05:28;;;;;;;;;;;;;;;12.14;56.20;99265.13;4972470;27;99541;-70
2023/11/10 07:07:56;;;;;;;;;;;;;;;12.14;56.08;99265.94;4966714;27;107785;-67
2023/11/10 07:10:22;;;;;;;;;;;;;;;12.15;56.27;99267.56;4976262;27;97984;-70
2023/11/10 07:12:48;;;;;;;;;;;;;;;12.18;56.10;99263.41;4981626;27;98511;-69
2023/11/10 07:15:14;;;;;;;;;;;;;;;12.21;56.10;99270.91;4975966;27;121895;-67
2023/11/10 07:17:43;;;;;;;;;;;;;;;12.24;55.93;99278.41;4981010;27;97946;-70
2023/11/10 07:20:10;;;;;;;;;;;;;;;12.25;55.89;99280.00;4952551;27;98288;-70
2023/11/10 07:22:36;;;;;;;;;;;;;;;12.25;56.13;99283.50;4978019;27;98151;-68
2023/11/10 07:25:03;;;;;;;;;;;;;;;12.26;55.94;99278.91;4936583;27;98886;-67
2023/11/10 07:27:30;;;;;;;;;;;;;;;12.27;56.00;99270.50;4945470;28;97926;-68
2023/11/10 07:29:56;;;;;;;;;;;;;;;12.31;56.11;99269.88;4958908;27;97799;-67
2023/11/10 07:32:24;;;;;;;;;;;;;;;12.38;55.93;99273.75;4945771;27;98178;-68
2023/11/10 07:34:50;;;;;;;;;;;;;;;12.45;56.08;99270.59;4951985;27;98233;-70
2023/11/10 07:37:16;;;;;;;;;;;;;;;12.53;55.64;99277.97;4960900;27;99713;-70
2023/11/10 07:39:42;;;;;;;;;;;;;;;12.58;55.67;99272.47;4949289;27;97925;-67
2023/11/10 07:42:13;;;;;;;;;;;;;;;12.64;55.66;99268.50;4992675;27;98591;-68
2023/11/10 07:44:39;;;;;;;;;;;;;;;12.69;55.96;99279.19;4947063;27;98053;-70
2023/11/10 07:47:06;;;;;;;;;;;;;;;12.75;55.76;99272.53;4951112;27;99025;-70
2023/11/10 07:49:32;;;;;;;;;;;;;;;12.85;55.48;99276.91;4957305;27;99133;-67
2023/11/10 07:51:58;;;;;;;;;;;;;;;12.96;55.41;99272.78;4961262;27;100541;-68
2023/11/10 07:54:24;;;;;;;;;;;;;;;13.02;55.64;99274.25;4958893;27;98415;-68
2023/11/10 07:56:51;;;;;;;;;;;;;;;13.07;55.67;99275.22;4946192;27;99935;-68
2023/11/10 07:59:17;;;;;;;;;;;;;;;13.10;55.41;99271.91;4963370;27;98390;-68
2023/11/10 08:01:43;;;;;;;;;;;;;;;13.11;55.83;99268.09;4948674;27;104165;-70
2023/11/10 08:04:09;;;;;;;;;;;;;;;13.18;55.61;99266.53;4983087;27;97885;-70
2023/11/10 08:06:36;;;;;;;;;;;;;;;13.29;55.18;99264.38;4955571;27;98463;-68
2023/11/10 08:09:03;;;;;;;;;;;;;;;13.41;55.57;99264.56;4946400;27;99127;-68
2023/11/10 08:11:30;;;;;;;;;;;;;;;13.50;55.25;99265.38;4979259;27;98172;-68
2023/11/10 08:13:56;;;;;;;;;;;;;;;13.62;55.05;99262.03;4946027;27;99587;-67
2023/11/10 08:16:23;;;;;;;;;;;;;;;13.80;54.85;99268.28;4953025;28;98343;-67
2023/11/10 08:18:49;;;;;;;;;;;;;;;13.92;55.32;99265.75;4951749;27;98157;-70
2023/11/10 08:21:19;;;;;;;;;;;;;;;14.06;54.76;99265.56;4976853;27;98683;-70
2023/11/10 08:23:45;;;;;;;;;;;;;;;14.21;54.97;99267.81;4945785;27;98049;-68
2023/11/10 08:26:12;;;;;;;;;;;;;;;14.32;54.71;99271.00;4946969;27;98502;-70
2023/11/10 08:28:38;;;;;;;;;;;;;;;14.41;54.97;99279.91;4973280;27;98595;-68
2023/11/10 08:31:04;;;;;;;;;;;;;;;14.44;55.04;99287.41;4964708;27;99139;-70
2023/11/10 08:33:34;;;;;;;;;;;;;;;14.48;55.06;99290.28;4962582;27;98536;-68
2023/11/10 08:36:00;;;;;;;;;;;;;;;14.51;54.86;99292.38;4951432;27;98056;-70
2023/11/10 08:38:27;;;;;;;;;;;;;;;14.54;54.89;99289.03;4956270;27;97901;-70
2023/11/10 08:40:53;;;;;;;;;;;;;;;14.58;55.01;99286.44;4969156;27;98230;-70
2023/11/10 08:43:19;;;;;;;;;;;;;;;14.61;54.89;99289.31;4968105;27;98357;-69
2023/11/10 08:45:46;;;;;;;;;;;;;;;14.58;55.10;99291.88;4956915;27;99185;-70
2023/11/10 08:48:13;;;;;;;;;;;;;;;14.58;55.10;99292.69;4953502;27;98452;-70
2023/11/10 08:50:39;;;;;;;;;;;;;;;14.59;55.04;99285.34;4969965;27;98199;-67
2023/11/10 08:53:09;;;;;;;;;;;;;;;14.61;54.93;99288.50;4971307;27;98490;-68
2023/11/10 08:55:38;;;;;;;;;;;;;;;14.60;55.23;99287.72;4967484;27;99668;-67
2023/11/10 08:58:05;;;;;;;;;;;;;;;14.61;55.06;99293.94;4951448;27;98966;-68
2023/11/10 09:00:32;;;;;;;;;;;;;;;14.62;55.28;99293.63;4955630;27;98504;-67
2023/11/10 09:02:58;;;;;;;;;;;;;;;14.73;55.14;99300.28;4954328;27;98768;-70
2023/11/10 09:05:25;;;;;;;;;;;;;;;14.79;54.85;99290.06;4957016;27;98427;-70
2023/11/10 09:07:53;;;;;;;;;;;;;;;15.03;54.80;99292.22;4955996;27;98241;-67
2023/11/10 09:10:21;;;;;;;;;;;;;;;15.19;54.60;99298.72;4957013;27;99660;-68
2023/11/10 09:12:48;;;;;;;;;;;;;;;15.32;54.81;99296.88;4958193;27;98336;-67
2023/11/10 09:15:14;;;;;;;;;;;;;;;15.52;54.32;99295.34;4969507;27;98947;-70
2023/11/10 09:17:41;;;;;;;;;;;;;;;15.77;54.17;99295.56;4978410;27;99450;-68
2023/11/10 09:20:08;;;;;;;;;;;;;;;16.11;53.84;99292.63;4975045;27;98102;-67
2023/11/10 09:22:35;;;;;;;;;;;;;;;16.40;53.72;99289.00;4986448;27;98332;-67
2023/11/10 09:25:04;;;;;;;;;;;;;;;16.51;53.84;99283.94;4976072;27;98724;-68
2023/11/10 09:27:31;;;;;;;;;;;;;;;16.50;54.08;99282.31;4972361;27;98232;-67
2023/11/10 09:29:58;;;;;;;;;;;;;;;16.48;53.95;99279.16;4971067;27;98463;-68
2023/11/10 09:32:25;;;;;;;;;;;;;;;16.54;54.24;99285.19;4973234;27;98076;-70
2023/11/10 09:34:52;;;;;;;;;;;;;;;16.56;54.25;99289.16;4973357;27;98027;-70
2023/11/10 09:37:19;;;;;;;;;;;;;;;16.53;54.44;99284.38;4963852;27;98470;-70
2023/11/10 09:39:48;;;;;;;;;;;;;;;16.53;54.29;99289.03;4971155;27;98847;-69
2023/11/10 09:42:15;;;;;;;;;;;;;;;16.47;54.63;99290.38;4970133;27;99530;-67
2023/11/10 09:44:56;;;;;;;;;;;;;;;16.39;54.53;99284.69;4968117;27;98227;-68
2023/11/10 09:47:27;;;;;;;;;;;;;;;16.28;54.87;99283.50;4975136;27;98814;-68
2023/11/10 09:49:53;;;;;;;;;;;;;;;16.19;54.87;99280.03;4976095;27;98132;-67
2023/11/10 09:52:22;;;;;;;;;;;;;;;16.11;54.99;99275.47;4971121;27;99236;-68
2023/11/10 09:54:51;;;;;;;;;;;;;;;16.00;55.21;99280.53;4972458;27;98350;-68
2023/11/10 09:57:17;;;;;;;;;;;;;;;15.84;55.37;99282.28;4985863;27;97970;-70
2023/11/10 09:59:45;;;;;;;;;;;;;;;15.71;55.58;99282.16;4982970;27;99119;-69
2023/11/10 10:02:15;;;;;;;;;;;;;;;15.56;55.80;99282.72;4975095;27;98579;-69
2023/11/10 10:04:45;;;;;;;;;;;;;;;15.44;55.73;99274.47;4972700;27;98088;-67
2023/11/10 10:07:11;;;;;;;;;;;;;;;15.34;55.84;99281.09;4969969;27;99408;-70
2023/11/10 10:09:39;;;;;;;;;;;;;;;15.28;55.78;99276.94;4996083;27;99990;-69
2023/11/10 10:12:08;;;;;;;;;;;;;;;15.24;55.82;99278.72;4967800;27;99593;-67
2023/11/10 10:14:34;;;;;;;;;;;;;;;15.17;55.68;99275.75;4969043;27;98301;-69
2023/11/10 10:17:00;;;;;;;;;;;;;;;15.11;55.76;99282.47;4982715;27;98029;-69
2023/11/10 10:19:28;;;;;;;;;;;;;;;15.12;55.77;99279.41;5002438;27;128255;-67
2023/11/10 10:21:55;;;;;;;;;;;;;;;15.13;55.63;99285.63;4981268;27;98069;-66
2023/11/10 10:24:22;;;;;;;;;;;;;;;15.09;55.72;99271.94;4967417;27;98561;-67
2023/11/10 10:26:50;;;;;;;;;;;;;;;15.01;55.59;99272.75;4980035;27;98048;-66
2023/11/10 10:29:18;;;;;;;;;;;;;;;14.97;55.82;99264.50;4979534;27;98109;-69
2023/11/10 10:31:45;;;;;;;;;;;;;;;14.96;55.82;99271.03;4966183;27;97990;-67
2023/11/10 10:34:12;;;;;;;;;;;;;;;14.97;55.58;99269.09;4963980;27;98340;-67
2023/11/10 10:36:38;;;;;;;;;;;;;;;14.92;55.58;99258.44;4966877;27;100389;-67
2023/11/10 10:39:11;;;;;;;;;;;;;;;14.84;55.82;99256.56;4966516;27;98039;-67
2023/11/10 10:41:38;;;;;;;;;;;;;;;14.81;55.84;99255.28;4981583;27;98315;-67
2023/11/10 10:44:05;;;;;;;;;;;;;;;14.77;55.47;99251.63;4970783;27;97937;-67
2023/11/10 10:46:35;;;;;;;;;;;;;;;14.73;55.93;99256.09;4983966;27;98182;-67
2023/11/10 10:49:06;;;;;;;;;;;;;;;14.67;55.70;99249.28;4969830;27;99552;-66
2023/11/10 10:51:37;;;;;;;;;;;;;;;14.61;56.10;99254.06;4989268;27;99760;-66
2023/11/10 10:54:07;;;;;;;;;;;;;;;14.57;56.04;99255.81;4970012;27;98772;-69
2023/11/10 10:56:39;;;;;;;;;;;;;;;14.51;55.77;99248.19;4983686;27;98796;-67
2023/11/10 10:59:06;;;;;;;;;;;;;;;14.45;56.03;99247.53;4969551;27;99054;-66
2023/11/10 11:01:33;;;;;;;;;;;;;;;14.39;56.00;99238.78;4963969;27;98388;-66
2023/11/10 11:04:07;;;;;;;;;;;;;;;14.29;55.96;99247.22;4970153;27;98512;-68
2023/11/10 11:07:04;;;;;;;;;;;;;;;14.20;56.19;99249.97;5008505;27;98987;-69
2023/11/10 11:09:57;;;;;;;;;;;;;;;14.14;56.25;99245.00;4979537;27;100015;-69
2023/11/10 11:12:35;;;;;;;;;;;;;;;14.12;56.04;99239.13;4983054;27;100374;-69
2023/11/10 11:15:27;;;;;;;;;;;;;;;14.21;56.00;99235.28;5003006;27;98383;-67
2023/11/10 11:18:13;;;;;;;;;;;;;;;14.24;56.02;99239.28;4990482;27;98196;-68
2023/11/10 11:20:39;;;;;;;;;;;;;;;14.18;56.12;99240.53;4976541;27;98508;-69
2023/11/10 11:23:07;;;;;;;;;;;;;;;14.15;56.13;99236.59;4970557;27;98230;-69
2023/11/10 11:25:35;;;;;;;;;;;;;;;14.15;55.67;99228.44;4971960;27;98588;-69
2023/11/10 11:28:02;;;;;;;;;;;;;;;14.14;55.85;99234.19;4981957;27;97706;-66
2023/11/10 11:30:40;;;;;;;;;;;;;;;14.15;55.74;99230.38;4968709;27;98003;-66
2023/11/10 11:33:12;;;;;;;;;;;;;;;14.10;55.80;99225.09;4958580;27;98857;-66
2023/11/10 11:35:47;;;;;;;;;;;;;;;14.05;56.10;99223.34;4978778;27;98032;-66
2023/11/10 11:38:31;;;;;;;;;;;;;;;13.98;56.25;99245.50;4968360;27;98478;-68
2023/11/10 11:40:58;;;;;;;;;;;;;;;13.91;55.98;99247.91;4982695;27;98377;-68
2023/11/10 11:43:24;;;;;;;;;;;;;;;13.89;56.27;99238.50;4969893;27;98236;-68
2023/11/10 11:45:57;;;;;;;;;;;;;;;13.87;55.96;99238.81;4998901;27;98341;-67
2023/11/10 11:48:24;;;;;;;;;;;;;;;13.79;56.08;99238.81;4968875;27;98298;-66
2023/11/10 11:50:55;;;;;;;;;;;;;;;13.69;56.32;99254.25;4967855;27;98236;-67
2023/11/10 11:53:26;;;;;;;;;;;;;;;13.64;56.28;99248.22;4963868;27;98699;-67
2023/11/10 11:55:55;;;;;;;;;;;;;;;13.60;56.30;99244.53;4975053;27;97916;-67
2023/11/10 11:58:22;;;;;;;;;;;;;;;13.63;55.97;99255.50;4967353;27;98453;-67
2023/11/10 12:00:50;;;;;;;;;;;;;;;13.62;56.02;99245.78;4973654;27;99419;-69
2023/11/10 12:03:16;;;;;;;;;;;;;;;13.59;56.11;99248.34;4963091;27;98449;-67
2023/11/10 12:05:44;;;;;;;;;;;;;;;13.55;56.11;99253.59;4967600;27;99105;-68
2023/11/10 12:08:13;;;;;;;;;;;;;;;13.49;56.40;99262.97;4968912;27;98105;-67
2023/11/10 12:10:40;;;;;;;;;;;;;;;13.45;56.06;99260.09;4964890;27;99924;-68
2023/11/10 12:13:07;;;;;;;;;;;;;;;13.43;56.48;99264.22;4958343;27;98213;-68
2023/11/10 12:15:36;;;;;;;;;;;;;;;13.44;56.01;99263.13;4962549;27;98154;-67
2023/11/10 12:18:02;;;;;;;;;;;;;;;13.47;56.25;99257.06;4958680;27;99145;-69
2023/11/10 12:20:30;;;;;;;;;;;;;;;13.45;56.18;99252.00;4977096;27;98760;-69
2023/11/10 12:22:56;;;;;;;;;;;;;;;13.46;56.31;99253.56;4970735;27;100244;-69
2023/11/10 12:25:26;;;;;;;;;;;;;;;13.46;56.19;99247.38;4995214;27;99107;-68
2023/11/10 12:27:55;;;;;;;;;;;;;;;13.44;55.93;99246.88;4971358;27;98412;-67
2023/11/10 12:30:22;;;;;;;;;;;;;;;13.43;56.24;99243.38;4967297;27;98522;-67
2023/11/10 12:32:49;;;;;;;;;;;;;;;13.47;55.86;99243.53;4964782;27;99247;-68
2023/11/10 12:35:15;;;;;;;;;;;;;;;13.63;55.58;99236.56;4970099;27;98312;-67
2023/11/10 12:37:43;;;;;;;;;;;;;;;13.87;55.56;99229.88;4971455;27;99888;-67
2023/11/10 12:40:16;;;;;;;;;;;;;;;14.10;55.26;99233.22;4971913;27;98054;-69
2023/11/10 12:42:42;;;;;;;;;;;;;;;14.20;55.14;99232.91;4979685;27;98726;-69
2023/11/10 12:45:11;;;;;;;;;;;;;;;14.21;55.09;99221.72;4979760;27;99779;-67
2023/11/10 12:47:42;;;;;;;;;;;;;;;14.22;55.54;99217.91;4987371;27;98160;-67